Time;durP1;ratioP1;P1;durP2;ratioP2;P2;SDS_P1;SDS_P2;PMS_P1;PMS_P2;Temp;Humidity;BMP_temperature;BMP_pressure;BME280_temperature;BME280_humidity;BME280_pressure;Samples;Min_cycle;Max_cycle;Signal;HPM_P1;HPM_P2
2022/01/20 00:00:20;;;;;;;8.13;2.17;;;;;;;3.24;77.89;101360.53;5087441;28;20309;-80
2022/01/20 00:02:50;;;;;;;7.97;2.13;;;;;;;3.19;78.05;101369.84;5086212;28;20208;-80
2022/01/20 00:05:31;;;;;;;9.80;2.53;;;;;;;3.20;78.55;101363.84;5089304;28;20204;-79
2022/01/20 00:08:17;;;;;;;11.80;2.97;;;;;;;3.19;78.96;101362.09;5089396;28;20227;-79
2022/01/20 00:27:19;;;;;;;7.60;1.73;;;;;;;2.91;79.76;101337.28;5089041;28;20285;-79
2022/01/20 00:32:35;;;;;;;11.07;2.43;;;;;;;2.81;81.63;101256.25;5092093;28;20207;-79
2022/01/20 00:35:16;;;;;;;13.33;3.47;;;;;;;2.87;82.07;101237.47;5093013;28;20304;-77
2022/01/20 00:37:42;;;;;;;9.40;3.87;;;;;;;2.84;82.74;101230.53;5089014;28;20195;-78
2022/01/20 00:40:09;;;;;;;9.53;2.90;;;;;;;2.80;83.11;101207.25;5088794;28;20234;-79
2022/01/20 00:42:38;;;;;;;7.67;3.20;;;;;;;2.81;84.17;101184.06;5088896;28;20215;-78
2022/01/20 00:45:05;;;;;;;16.70;2.80;;;;;;;2.83;84.64;101166.91;5088519;28;20265;-78
2022/01/20 00:47:32;;;;;;;12.80;2.40;;;;;;;2.79;86.25;101134.16;5088527;28;20327;-78
2022/01/20 00:49:58;;;;;;;10.27;3.03;;;;;;;2.81;86.95;101093.81;5088002;28;20241;-79
2022/01/20 00:52:24;;;;;;;13.27;3.10;;;;;;;2.82;87.41;101077.53;5088785;28;20271;-78
2022/01/20 00:54:51;;;;;;;23.67;3.47;;;;;;;2.88;87.68;101069.06;5088501;28;20250;-78
2022/01/20 00:57:18;;;;;;;15.33;2.90;;;;;;;2.85;88.00;101071.56;5088746;28;20204;-79
2022/01/20 00:59:46;;;;;;;18.97;3.57;;;;;;;2.83;88.26;101065.50;5087933;28;20698;-78
2022/01/20 01:02:12;;;;;;;13.60;3.80;;;;;;;2.84;88.64;101056.94;5088371;28;20215;-78
2022/01/20 01:04:40;;;;;;;15.27;3.53;;;;;;;2.76;88.63;101057.63;5088577;28;20635;-78
2022/01/20 01:09:53;;;;;;;15.07;3.43;;;;;;;2.63;89.77;101027.25;5081913;28;20733;-78
2022/01/20 01:12:29;;;;;;;16.37;2.60;;;;;;;2.67;89.69;101012.72;5087967;28;20219;-78
2022/01/20 01:14:58;;;;;;;14.33;3.43;;;;;;;2.55;90.41;100995.28;5086752;28;20208;-78
2022/01/20 01:20:15;;;;;;;19.53;2.83;;;;;;;2.68;90.43;100980.97;5087669;28;20612;-78
2022/01/20 01:22:42;;;;;;;14.47;3.27;;;;;;;2.63;90.52;100980.84;5088722;28;20204;-78
2022/01/20 01:25:09;;;;;;;23.07;4.00;;;;;;;2.59;90.53;100982.47;5090292;28;20216;-78
2022/01/20 01:27:39;;;;;;;18.97;3.50;;;;;;;2.56;91.10;100966.13;5090746;28;20765;-79
2022/01/20 01:30:19;;;;;;;10.90;3.50;;;;;;;2.49;90.93;100959.06;5091989;28;20706;-77
2022/01/20 01:32:51;;;;;;;13.67;2.73;;;;;;;2.50;91.52;100946.22;5088083;28;20200;-78
2022/01/20 01:35:21;;;;;;;18.47;3.67;;;;;;;2.55;91.65;100956.63;5088333;28;20219;-78
2022/01/20 01:40:34;;;;;;;15.63;3.47;;;;;;;2.53;91.33;100948.84;5087554;28;20241;-78
2022/01/20 01:43:05;;;;;;;14.73;4.23;;;;;;;2.51;91.80;100940.22;5087983;28;20212;-78
2022/01/20 01:45:36;;;;;;;14.13;3.77;;;;;;;2.47;92.00;100919.50;5087996;28;20255;-78
2022/01/20 01:48:03;;;;;;;20.93;3.57;;;;;;;2.51;91.77;100926.47;5087167;28;20321;-78
2022/01/20 01:50:30;;;;;;;12.87;3.27;;;;;;;2.47;91.80;100928.09;5086948;28;20209;-78
2022/01/20 01:52:59;;;;;;;15.17;3.80;;;;;;;2.48;92.07;100927.28;5087150;28;20230;-78
2022/01/20 01:55:26;;;;;;;17.23;3.40;;;;;;;2.53;91.71;100937.69;5086651;28;20200;-77
2022/01/20 01:57:52;;;;;;;21.80;3.70;;;;;;;2.55;91.25;100947.19;5087423;28;20200;-78
2022/01/20 02:00:20;;;;;;;13.07;3.27;;;;;;;2.58;91.13;100951.56;5085675;28;20236;-80
2022/01/20 02:02:48;;;;;;;17.67;3.50;;;;;;;2.66;91.62;100959.47;5087049;28;20262;-78
2022/01/20 02:05:17;;;;;;;15.77;3.43;;;;;;;2.70;91.11;100959.53;5086743;28;20204;-78
2022/01/20 02:08:26;;;;;;;17.50;3.60;;;;;;;2.72;90.82;100968.19;5086894;28;20694;-78
2022/01/20 02:19:10;;;;;;;16.73;3.47;;;;;;;2.82;90.93;100963.22;5086330;28;20282;-78
2022/01/20 02:21:45;;;;;;;22.33;4.00;;;;;;;2.88;90.62;100960.78;5085699;28;20212;-78
2022/01/20 02:24:12;;;;;;;11.83;2.90;;;;;;;2.89;90.42;100959.91;5086341;28;20220;-78
2022/01/20 02:26:39;;;;;;;16.10;3.00;;;;;;;2.86;90.32;100965.91;5086415;28;20219;-78
2022/01/20 02:29:05;;;;;;;9.33;2.47;;;;;;;2.90;90.34;100959.97;5085376;28;20228;-78
2022/01/20 02:31:32;;;;;;;16.53;2.90;;;;;;;2.88;90.44;100956.47;5086884;28;20214;-77
2022/01/20 02:33:58;;;;;;;16.30;3.90;;;;;;;2.85;90.27;100948.66;5087579;28;20212;-78
2022/01/20 02:36:26;;;;;;;11.80;2.87;;;;;;;2.79;91.03;100930.50;5086804;28;20196;-78
2022/01/20 02:38:57;;;;;;;16.93;3.40;;;;;;;2.78;90.83;100932.22;5086704;28;20818;-78
2022/01/20 02:46:53;;;;;;;15.03;2.77;;;;;;;2.77;91.47;100898.66;5086632;28;20234;-78
2022/01/20 02:49:20;;;;;;;10.67;3.30;;;;;;;2.77;91.86;100896.97;5086418;28;20465;-78
2022/01/20 02:51:47;;;;;;;9.87;3.03;;;;;;;2.70;92.04;100887.38;5085967;28;20204;-78
2022/01/20 02:54:15;;;;;;;10.13;2.47;;;;;;;2.56;93.03;100860.47;5085687;28;21171;-77
2022/01/20 02:56:41;;;;;;;7.07;2.70;;;;;;;2.54;93.48;100834.66;5085771;28;20269;-78
2022/01/20 02:59:07;;;;;;;5.33;2.00;;;;;;;2.46;93.96;100814.72;5086030;28;20254;-78
2022/01/20 03:01:34;;;;;;;8.07;2.43;;;;;;;2.38;94.37;100796.53;5084249;28;20208;-77
2022/01/20 03:04:02;;;;;;;4.30;1.77;;;;;;;2.25;94.52;100792.84;5084321;28;20250;-78
2022/01/20 03:06:28;;;;;;;6.93;2.27;;;;;;;2.19;95.17;100785.84;5085445;28;20192;-78
2022/01/20 03:08:55;;;;;;;5.07;1.80;;;;;;;2.12;95.78;100768.53;5087389;28;20228;-78
2022/01/20 03:11:23;;;;;;;8.23;2.37;;;;;;;2.21;95.46;100767.84;5087209;28;20211;-78
2022/01/20 03:13:49;;;;;;;8.63;1.67;;;;;;;2.20;95.33;100768.72;5087192;28;20212;-79
2022/01/20 03:16:16;;;;;;;6.03;1.87;;;;;;;2.22;95.23;100759.31;5087630;28;20211;-78
2022/01/20 03:18:43;;;;;;;6.10;1.60;;;;;;;2.18;95.88;100757.47;5087418;28;20228;-79
2022/01/20 03:21:09;;;;;;;3.23;1.87;;;;;;;2.19;95.36;100744.63;5086371;28;20215;-78
2022/01/20 03:23:35;;;;;;;11.20;2.37;;;;;;;2.22;95.50;100740.38;5086888;28;20688;-78
2022/01/20 03:26:02;;;;;;;8.63;1.90;;;;;;;2.24;95.94;100741.28;5087636;28;20230;-78
2022/01/20 03:28:29;;;;;;;5.57;1.60;;;;;;;2.19;96.48;100739.50;5086947;28;20250;-78
2022/01/20 03:30:56;;;;;;;4.57;1.63;;;;;;;2.27;97.06;100737.06;5087084;28;20226;-79
2022/01/20 03:33:22;;;;;;;7.47;1.87;;;;;;;2.25;97.39;100722.44;5087431;28;20204;-78
2022/01/20 03:35:51;;;;;;;6.03;2.13;;;;;;;2.21;98.24;100703.47;5087061;28;20642;-78
2022/01/20 03:38:18;;;;;;;5.53;2.27;;;;;;;2.15;99.09;100662.16;5088052;28;20223;-79
2022/01/20 03:40:44;;;;;;;5.07;1.67;;;;;;;2.16;99.29;100645.84;5087775;28;20226;-79
2022/01/20 03:43:11;;;;;;;5.33;1.93;;;;;;;2.17;99.92;100614.97;5087841;28;20662;-79
2022/01/20 03:45:39;;;;;;;7.23;2.50;;;;;;;2.13;100.00;100615.78;5087278;28;20270;-78
2022/01/20 03:48:11;;;;;;;5.63;2.00;;;;;;;2.10;100.00;100608.00;5087025;28;20273;-78
2022/01/20 03:53:22;;;;;;;3.13;1.30;;;;;;;2.05;100.00;100595.88;5086861;28;20743;-79
2022/01/20 03:55:50;;;;;;;4.03;1.13;;;;;;;1.99;100.00;100578.63;5086943;28;20741;-78
2022/01/20 03:58:16;;;;;;;3.43;0.80;;;;;;;1.94;100.00;100588.84;5086803;28;20230;-79
2022/01/20 04:00:45;;;;;;;2.93;0.80;;;;;;;1.96;100.00;100594.00;5086076;28;20197;-79
2022/01/20 04:03:11;;;;;;;2.00;0.50;;;;;;;1.97;100.00;100588.03;5087357;28;20208;-79
2022/01/20 04:05:42;;;;;;;2.93;1.00;;;;;;;1.94;100.00;100593.09;5086901;28;20200;-79
2022/01/20 04:08:08;;;;;;;0.93;0.50;;;;;;;1.94;100.00;100588.84;5090408;28;20211;-78
2022/01/20 04:10:35;;;;;;;1.37;0.70;;;;;;;1.92;100.00;100594.78;5090749;28;20257;-78
2022/01/20 04:13:01;;;;;;;3.33;0.67;;;;;;;1.92;100.00;100598.25;5091544;28;20204;-78
2022/01/20 04:15:37;;;;;;;4.17;1.33;;;;;;;1.88;100.00;100593.84;5090489;28;20204;-79
2022/01/20 04:18:06;;;;;;;1.97;0.60;;;;;;;1.87;100.00;100601.56;5090698;28;20535;-78
2022/01/20 04:20:32;;;;;;;3.50;1.10;;;;;;;1.91;100.00;100603.34;5090077;28;20253;-78
2022/01/20 04:22:58;;;;;;;2.00;0.77;;;;;;;1.96;100.00;100636.06;5091062;28;20196;-79
2022/01/20 04:25:25;;;;;;;3.80;0.90;;;;;;;1.92;100.00;100623.97;5089618;28;20200;-78
2022/01/20 04:27:52;;;;;;;4.23;1.23;;;;;;;1.92;100.00;100605.97;5090959;28;20200;-78
2022/01/20 04:30:18;;;;;;;3.00;0.90;;;;;;;1.95;100.00;100603.44;5088485;28;20236;-79
2022/01/20 04:32:45;;;;;;;2.53;0.97;;;;;;;1.99;100.00;100609.50;5090117;28;20199;-78
2022/01/20 04:35:13;;;;;;;4.97;1.20;;;;;;;2.13;100.00;100640.66;5089691;28;20208;-78
2022/01/20 04:37:39;;;;;;;2.03;0.90;;;;;;;2.14;100.00;100665.56;5089193;28;20201;-78
2022/01/20 04:40:07;;;;;;;2.60;0.73;;;;;;;2.16;99.61;100676.75;5088674;28;20775;-79
2022/01/20 04:42:36;;;;;;;2.23;0.90;;;;;;;2.11;99.44;100689.53;5089530;28;20200;-78
2022/01/20 04:45:07;;;;;;;2.67;0.80;;;;;;;2.01;98.12;100709.94;5089260;28;20732;-79
2022/01/20 04:47:42;;;;;;;1.83;0.97;;;;;;;2.03;97.68;100739.16;5089984;28;20229;-78
2022/01/20 04:58:22;;;;;;;4.03;0.83;;;;;;;1.90;96.89;100820.41;5088958;28;20617;-78
2022/01/20 05:00:48;;;;;;;3.57;1.07;;;;;;;1.93;96.66;100821.34;5088433;28;20222;-78
2022/01/20 05:03:15;;;;;;;3.03;0.70;;;;;;;1.88;96.57;100811.75;5089712;28;20212;-79
2022/01/20 05:05:41;;;;;;;4.90;1.00;;;;;;;1.92;96.69;100798.13;5088999;28;20298;-78
2022/01/20 05:08:09;;;;;;;5.10;1.13;;;;;;;1.91;96.74;100812.72;5087253;28;20208;-78
2022/01/20 05:10:36;;;;;;;6.70;1.40;;;;;;;1.88;95.48;100852.94;5085977;28;20422;-78
2022/01/20 05:13:11;;;;;;;6.73;1.93;;;;;;;1.87;95.29;100867.53;5086947;28;20204;-78
2022/01/20 05:15:37;;;;;;;4.57;1.73;;;;;;;1.82;94.19;100889.72;5087812;28;20261;-78
2022/01/20 05:18:04;;;;;;;4.17;1.30;;;;;;;1.81;93.82;100900.84;5086391;28;20327;-78
2022/01/20 05:20:30;;;;;;;4.83;1.47;;;;;;;1.84;94.31;100910.34;5087103;28;20273;-78
2022/01/20 05:22:57;;;;;;;10.33;1.20;;;;;;;1.81;93.76;100936.88;5086731;28;20642;-77
2022/01/20 05:25:24;;;;;;;3.37;0.90;;;;;;;1.82;93.57;100951.47;5087086;28;20738;-78
2022/01/20 05:27:51;;;;;;;3.27;1.50;;;;;;;1.74;93.15;100953.84;5087707;28;20219;-78
2022/01/20 05:30:17;;;;;;;3.63;1.27;;;;;;;1.76;92.94;100980.53;5087573;28;20655;-78
2022/01/20 05:32:43;;;;;;;7.07;1.60;;;;;;;1.78;92.36;100977.97;5088288;28;20204;-78
2022/01/20 05:35:10;;;;;;;3.40;1.10;;;;;;;1.79;91.70;100998.59;5088639;28;20664;-79
2022/01/20 05:37:37;;;;;;;5.57;1.50;;;;;;;1.70;91.80;101015.50;5087840;28;20693;-78
2022/01/20 05:40:04;;;;;;;7.50;1.30;;;;;;;1.76;91.51;101016.56;5086804;28;20224;-80
2022/01/20 05:42:32;;;;;;;6.63;1.20;;;;;;;1.77;92.66;101015.72;5087767;28;20270;-80
2022/01/20 05:44:58;;;;;;;8.10;1.30;;;;;;;1.78;91.99;101019.16;5087787;28;20226;-79
2022/01/20 05:47:29;;;;;;;8.00;1.50;;;;;;;1.76;92.36;101023.38;5087606;28;20265;-78
2022/01/20 05:49:55;;;;;;;4.70;1.60;;;;;;;1.81;92.01;101044.13;5086216;28;20277;-79
2022/01/20 05:52:22;;;;;;;8.87;1.50;;;;;;;1.82;91.61;101051.00;5086309;28;20204;-78
2022/01/20 05:54:48;;;;;;;10.27;1.77;;;;;;;1.81;90.96;101051.84;5087407;28;20257;-78
2022/01/20 05:57:14;;;;;;;7.30;1.20;;;;;;;1.78;91.18;101061.22;5087956;28;20269;-79
2022/01/20 05:59:42;;;;;;;8.53;1.70;;;;;;;1.83;91.48;101071.63;5086236;28;20672;-79
2022/01/20 06:02:13;;;;;;;13.93;1.70;;;;;;;1.88;91.52;101070.03;5086307;28;20797;-78
2022/01/20 06:04:40;;;;;;;6.87;1.53;;;;;;;1.64;90.09;101131.16;5086276;28;20286;-78
2022/01/20 06:07:06;;;;;;;6.33;1.57;;;;;;;1.41;90.94;101120.19;5086362;28;20208;-77
2022/01/20 06:09:33;;;;;;;9.83;1.83;;;;;;;0.99;93.56;101072.66;5086101;28;20228;-78
2022/01/20 06:11:59;;;;;;;4.70;1.40;;;;;;;0.81;95.98;100990.75;5086906;28;20751;-78
2022/01/20 06:14:28;;;;;;;7.27;2.10;;;;;;;0.77;97.58;100942.66;5087380;28;20192;-79
2022/01/20 06:16:56;;;;;;;9.10;1.60;;;;;;;0.75;98.19;100918.63;5086505;28;20204;-79
2022/01/20 06:19:24;;;;;;;6.67;2.43;;;;;;;0.59;98.13;100899.31;5086171;28;20219;-79
2022/01/20 06:21:51;;;;;;;5.20;1.77;;;;;;;0.57;99.16;100895.84;5086318;28;20233;-79
2022/01/20 06:24:17;;;;;;;7.63;1.53;;;;;;;0.31;99.77;100895.94;5086184;28;20257;-77
2022/01/20 06:26:44;;;;;;;5.83;1.83;;;;;;;0.23;99.63;100861.47;5086499;28;20203;-79
2022/01/20 06:29:10;;;;;;;4.83;1.30;;;;;;;0.21;97.42;100886.22;5085416;28;20227;-79
2022/01/20 06:31:36;;;;;;;1.60;0.87;;;;;;;0.28;95.28;100969.44;5084700;28;20215;-78
2022/01/20 06:34:04;;;;;;;2.70;0.87;;;;;;;0.26;95.21;101002.78;5086277;28;20212;-79
2022/01/20 06:36:31;;;;;;;6.10;0.90;;;;;;;0.36;94.95;101019.34;5085326;28;20735;-78
2022/01/20 06:38:58;;;;;;;3.70;1.03;;;;;;;0.32;96.31;100995.28;5086175;28;20276;-78
2022/01/20 06:41:26;;;;;;;4.67;1.33;;;;;;;0.36;96.88;100983.41;5085883;28;20258;-78
2022/01/20 06:43:53;;;;;;;3.90;1.30;;;;;;;0.39;97.74;100973.22;5086359;28;20224;-78
2022/01/20 06:46:19;;;;;;;3.50;1.37;;;;;;;0.34;97.89;100954.25;5085925;28;20212;-79
2022/01/20 06:48:45;;;;;;;2.20;1.20;;;;;;;0.29;98.91;100940.38;5085291;28;20224;-78
2022/01/20 06:51:13;;;;;;;4.93;1.60;;;;;;;0.35;98.43;100928.59;5085180;28;20207;-78
2022/01/20 06:53:39;;;;;;;8.53;1.60;;;;;;;0.46;98.12;100943.47;5085740;28;20203;-78
2022/01/20 06:56:06;;;;;;;5.23;1.70;;;;;;;0.41;97.20;100973.25;5086318;28;20211;-77
2022/01/20 06:58:32;;;;;;;7.07;1.93;;;;;;;0.47;96.92;100991.44;5085631;28;20220;-78
2022/01/20 07:00:59;;;;;;;10.73;1.83;;;;;;;0.59;96.37;101031.22;5084564;28;20717;-78
2022/01/20 07:03:25;;;;;;;5.50;1.40;;;;;;;0.58;95.68;101059.44;5085124;28;20234;-78
2022/01/20 07:05:51;;;;;;;7.43;1.60;;;;;;;0.45;95.24;101083.81;5085078;28;20208;-78
2022/01/20 07:08:20;;;;;;;5.80;1.20;;;;;;;0.59;93.08;101113.44;5085125;28;20257;-78
2022/01/20 07:10:47;;;;;;;8.00;2.40;;;;;;;0.62;91.30;101188.84;5084016;28;20201;-78
2022/01/20 07:13:13;;;;;;;6.60;1.63;;;;;;;0.68;91.00;101225.88;5085283;28;20219;-77
2022/01/20 07:15:40;;;;;;;10.43;1.67;;;;;;;0.72;90.01;101270.56;5085150;28;20283;-78
2022/01/20 07:18:06;;;;;;;6.47;2.00;;;;;;;0.75;89.24;101265.50;5085669;28;20236;-78
2022/01/20 07:20:33;;;;;;;7.67;2.17;;;;;;;0.71;89.50;101266.22;5085373;28;20281;-79
2022/01/20 07:22:59;;;;;;;11.50;1.80;;;;;;;0.65;89.99;101266.88;5085837;28;20219;-79
2022/01/20 07:25:27;;;;;;;7.17;2.37;;;;;;;0.50;91.44;101246.69;5085090;28;20663;-77
2022/01/20 07:27:53;;;;;;;8.80;2.50;;;;;;;0.61;90.78;101253.88;5084266;28;20208;-77
2022/01/20 07:30:20;;;;;;;10.63;1.80;;;;;;;0.56;90.61;101264.00;5083136;28;20215;-77
2022/01/20 07:32:47;;;;;;;17.73;2.17;;;;;;;0.63;90.93;101254.81;5084174;28;20200;-77
2022/01/20 07:35:13;;;;;;;8.40;2.40;;;;;;;0.66;91.21;101267.78;5084872;28;20204;-78
2022/01/20 07:37:40;;;;;;;11.70;1.87;;;;;;;0.61;91.51;101253.88;5084497;28;20209;-78
2022/01/20 07:40:07;;;;;;;10.00;1.97;;;;;;;0.55;92.12;101237.41;5085710;28;20594;-80
2022/01/20 07:42:35;;;;;;;8.27;2.00;;;;;;;0.51;91.60;101219.28;5088877;28;20196;-80
2022/01/20 07:45:02;;;;;;;8.30;1.50;;;;;;;0.48;92.42;101220.06;5091222;28;20329;-79
2022/01/20 07:47:28;;;;;;;9.90;1.83;;;;;;;0.52;91.79;101236.47;5090578;28;20206;-79
2022/01/20 07:49:54;;;;;;;15.63;2.60;;;;;;;0.58;90.63;101263.22;5090266;28;20273;-79
2022/01/20 07:52:21;;;;;;;6.20;1.77;;;;;;;0.65;89.20;101292.56;5090751;28;20257;-80
2022/01/20 07:54:47;;;;;;;7.33;1.70;;;;;;;0.65;90.00;101299.41;5090055;28;20211;-79
2022/01/20 07:57:14;;;;;;;9.10;2.37;;;;;;;0.52;90.11;101295.53;5089823;28;20258;-78
2022/01/20 07:59:41;;;;;;;11.47;2.40;;;;;;;0.49;89.91;101287.72;5089518;28;20281;-79
2022/01/20 08:02:08;;;;;;;12.00;1.73;;;;;;;0.47;90.79;101291.91;5090374;28;20200;-80
2022/01/20 08:04:34;;;;;;;6.80;1.67;;;;;;;0.46;90.34;101300.47;5087508;28;20234;-79
2022/01/20 08:07:01;;;;;;;7.43;2.00;;;;;;;0.44;89.86;101322.63;5089069;28;20200;-79
2022/01/20 08:09:27;;;;;;;5.20;1.40;;;;;;;0.41;89.71;101320.81;5089480;28;20238;-79
2022/01/20 08:11:53;;;;;;;11.50;1.83;;;;;;;0.41;89.39;101331.09;5089795;28;20200;-80
2022/01/20 08:14:20;;;;;;;4.83;1.60;;;;;;;0.36;88.76;101348.91;5089723;28;20200;-79
2022/01/20 08:16:47;;;;;;;6.17;2.13;;;;;;;0.43;88.29;101375.69;5089992;28;20617;-79
2022/01/20 08:19:14;;;;;;;6.17;1.70;;;;;;;0.39;87.45;101379.81;5088422;28;20287;-77
2022/01/20 08:21:40;;;;;;;4.60;1.77;;;;;;;0.38;87.82;101390.94;5089431;28;20452;-78
2022/01/20 08:24:07;;;;;;;7.00;1.53;;;;;;;0.50;88.06;101405.94;5089441;28;20220;-80
2022/01/20 08:26:33;;;;;;;6.23;1.60;;;;;;;0.56;86.74;101406.16;5089911;28;20204;-79
2022/01/20 08:28:59;;;;;;;5.13;1.40;;;;;;;0.55;87.03;101414.66;5089487;28;20228;-79
2022/01/20 08:31:26;;;;;;;7.10;1.63;;;;;;;0.59;86.95;101431.97;5089045;28;20623;-80
2022/01/20 08:33:53;;;;;;;7.27;2.03;;;;;;;0.68;86.20;101440.84;5089749;28;20212;-79
2022/01/20 08:36:20;;;;;;;9.77;1.83;;;;;;;0.73;85.91;101449.59;5087594;28;20273;-78
2022/01/20 08:38:46;;;;;;;7.20;1.60;;;;;;;0.73;85.77;101467.56;5088107;28;20231;-78
2022/01/20 08:41:13;;;;;;;3.23;1.37;;;;;;;0.70;85.46;101486.31;5087590;28;20223;-79
2022/01/20 08:43:39;;;;;;;10.17;1.70;;;;;;;0.75;85.53;101477.09;5088732;28;20208;-78
2022/01/20 08:46:07;;;;;;;5.90;1.33;;;;;;;0.82;84.45;101482.47;5086846;28;20813;-78
2022/01/20 08:48:34;;;;;;;5.57;1.47;;;;;;;0.84;84.97;101483.41;5086566;28;20250;-77
2022/01/20 08:51:03;;;;;;;5.77;2.00;;;;;;;0.84;84.79;101491.97;5086791;28;20208;-78
2022/01/20 08:53:31;;;;;;;4.27;1.67;;;;;;;0.80;85.44;101477.28;5086521;28;20200;-77
2022/01/20 08:55:58;;;;;;;6.90;1.67;;;;;;;0.84;86.08;101468.00;5086938;28;20291;-78
2022/01/20 08:58:24;;;;;;;11.77;1.87;;;;;;;0.85;84.57;101486.00;5087345;28;20663;-78
2022/01/20 09:00:50;;;;;;;9.73;1.90;;;;;;;0.86;84.30;101486.91;5086864;28;20283;-78
2022/01/20 09:03:17;;;;;;;10.70;2.30;;;;;;;0.83;85.11;101494.50;5087323;28;20277;-78
2022/01/20 09:05:43;;;;;;;11.00;1.83;;;;;;;0.88;85.39;101495.56;5087033;28;20269;-77
2022/01/20 09:08:12;;;;;;;12.63;1.53;;;;;;;0.89;84.79;101485.34;5085710;28;20207;-78
2022/01/20 09:10:42;;;;;;;5.67;2.07;;;;;;;0.90;84.47;101487.06;5085700;28;20245;-78
2022/01/20 09:15:54;;;;;;;12.67;2.27;;;;;;;0.88;83.75;101521.25;5086636;28;20214;-78
2022/01/20 09:18:22;;;;;;;8.73;1.23;;;;;;;0.87;84.42;101519.50;5086392;28;20232;-78
2022/01/20 09:20:49;;;;;;;6.57;1.33;;;;;;;0.91;85.21;101498.22;5086155;28;20917;-78
2022/01/20 09:23:17;;;;;;;5.37;2.40;;;;;;;0.97;85.28;101495.88;5085562;28;20657;-78
2022/01/20 09:25:44;;;;;;;5.60;1.60;;;;;;;0.92;85.34;101492.28;5085714;28;20204;-77
2022/01/20 09:28:10;;;;;;;6.13;1.77;;;;;;;0.97;84.84;101493.31;5086154;28;20602;-77
2022/01/20 09:30:40;;;;;;;10.17;1.83;;;;;;;0.99;84.51;101490.00;5085349;28;20246;-77
2022/01/20 09:33:14;;;;;;;6.00;1.40;;;;;;;1.06;84.30;101505.63;5085599;28;20602;-77
2022/01/20 09:35:44;;;;;;;6.93;2.30;;;;;;;1.09;83.26;101537.50;5085083;28;20725;-77
2022/01/20 09:38:12;;;;;;;7.13;1.77;;;;;;;1.08;82.20;101555.44;5084894;28;20204;-77
2022/01/20 09:40:41;;;;;;;5.50;1.60;;;;;;;1.16;82.93;101575.44;5085955;28;20220;-78
2022/01/20 09:43:10;;;;;;;5.27;1.27;;;;;;;1.26;81.26;101591.25;5086702;28;20254;-78
2022/01/20 09:45:38;;;;;;;6.43;1.70;;;;;;;1.32;81.70;101604.31;5086547;28;20204;-78
2022/01/20 09:48:06;;;;;;;9.87;2.43;;;;;;;1.30;81.39;101618.81;5086417;28;20202;-78
2022/01/20 09:50:33;;;;;;;5.33;1.60;;;;;;;1.23;81.63;101610.00;5085979;28;20311;-78
2022/01/20 09:53:01;;;;;;;6.10;1.40;;;;;;;1.15;80.74;101642.25;5084858;28;20200;-78
2022/01/20 09:55:28;;;;;;;6.07;1.37;;;;;;;1.09;81.70;101632.63;5086946;28;20695;-78
2022/01/20 09:57:56;;;;;;;6.27;1.87;;;;;;;0.95;84.97;101588.38;5086840;28;20708;-77
2022/01/20 10:00:23;;;;;;;5.67;1.57;;;;;;;0.68;86.90;101520.50;5086016;28;20259;-78
2022/01/20 10:02:56;;;;;;;6.60;1.90;;;;;;;0.69;87.88;101461.44;5086394;28;20730;-78
2022/01/20 10:05:28;;;;;;;7.83;1.70;;;;;;;0.85;87.64;101447.47;5086121;28;20204;-78
2022/01/20 10:08:01;;;;;;;6.93;1.73;;;;;;;0.83;87.28;101458.50;5086214;28;20265;-79
2022/01/20 10:10:37;;;;;;;7.87;2.00;;;;;;;0.91;84.69;101501.69;5086599;28;20272;-78
2022/01/20 10:13:06;;;;;;;10.20;1.80;;;;;;;0.96;83.82;101525.84;5087307;28;20739;-78
2022/01/20 10:15:33;;;;;;;5.60;2.40;;;;;;;1.06;83.80;101539.94;5087181;28;20204;-78
2022/01/20 10:18:05;;;;;;;8.07;2.03;;;;;;;1.11;83.33;101559.00;5086101;28;20451;-78
2022/01/20 10:20:32;;;;;;;6.97;1.87;;;;;;;1.08;81.80;101583.72;5085625;28;20219;-78
2022/01/20 10:22:58;;;;;;;9.03;1.67;;;;;;;1.11;82.28;101601.81;5086372;28;20690;-78
2022/01/20 10:25:25;;;;;;;9.40;1.87;;;;;;;1.09;83.10;101600.88;5086082;28;20674;-79
2022/01/20 10:27:53;;;;;;;11.53;2.13;;;;;;;1.08;82.76;101592.28;5086021;28;20212;-79
2022/01/20 10:30:25;;;;;;;6.27;2.23;;;;;;;1.12;81.92;101621.56;5086766;28;20220;-78
2022/01/20 10:32:53;;;;;;;6.13;2.37;;;;;;;1.13;81.65;101616.50;5085946;28;20207;-78
2022/01/20 10:35:25;;;;;;;6.37;1.57;;;;;;;1.15;82.21;101602.00;5085825;28;20678;-79
2022/01/20 10:37:58;;;;;;;4.47;1.43;;;;;;;1.12;82.15;101609.59;5085720;28;20200;-80
2022/01/20 10:40:25;;;;;;;6.97;1.80;;;;;;;1.12;83.27;101603.56;5084937;28;20681;-78
2022/01/20 10:42:52;;;;;;;5.27;1.57;;;;;;;1.18;82.63;101614.09;5085452;28;20285;-79
2022/01/20 10:45:22;;;;;;;11.37;2.20;;;;;;;1.21;82.39;101616.78;5086142;28;20204;-78
2022/01/20 10:47:50;;;;;;;7.83;1.73;;;;;;;1.21;83.48;101611.66;5085780;28;20208;-78
2022/01/20 10:50:21;;;;;;;7.00;1.27;;;;;;;1.18;84.40;101570.38;5085165;28;20236;-78
2022/01/20 10:52:49;;;;;;;3.63;1.73;;;;;;;1.13;84.44;101559.03;5085449;28;20219;-79
2022/01/20 10:55:21;;;;;;;5.80;2.20;;;;;;;1.18;84.20;101547.22;5085480;28;20210;-78
2022/01/20 10:57:48;;;;;;;9.27;2.33;;;;;;;1.25;83.61;101568.91;5086070;28;20299;-78
2022/01/20 11:00:19;;;;;;;5.47;1.40;;;;;;;1.27;83.54;101556.97;5085065;28;20297;-79
2022/01/20 11:02:49;;;;;;;2.70;1.30;;;;;;;1.37;81.79;101584.81;5084908;28;20211;-79
2022/01/20 11:05:16;;;;;;;6.10;2.23;;;;;;;1.54;82.20;101604.28;5084779;28;20208;-79
2022/01/20 11:07:43;;;;;;;7.43;1.70;;;;;;;1.62;82.87;101606.28;5085611;28;20295;-79
2022/01/20 11:10:11;;;;;;;7.90;2.37;;;;;;;1.55;81.69;101639.50;5083717;28;20241;-78
2022/01/20 11:12:38;;;;;;;4.20;1.43;;;;;;;1.51;82.53;101632.50;5084628;28;20273;-78
2022/01/20 11:15:08;;;;;;;7.33;2.23;;;;;;;1.51;83.09;101623.91;5082342;28;20200;-78
2022/01/20 11:17:36;;;;;;;6.50;3.07;;;;;;;1.38;84.18;101589.13;5084554;28;20208;-78
2022/01/20 11:20:10;;;;;;;6.50;2.57;;;;;;;1.26;86.33;101544.94;5083697;28;20246;-78
2022/01/20 11:22:37;;;;;;;9.68;2.70;;;;;;;1.19;88.33;101483.00;5083639;28;20444;-76
2022/01/20 11:25:06;;;;;;;6.20;1.83;;;;;;;0.94;90.16;101431.50;5084486;28;20682;-77
2022/01/20 11:27:37;;;;;;;4.23;1.67;;;;;;;0.86;91.63;101360.97;5081982;28;20207;-77
2022/01/20 11:30:14;;;;;;;5.27;1.93;;;;;;;0.67;93.13;101303.78;5084407;28;21047;-79
2022/01/20 11:32:41;;;;;;;9.23;1.90;;;;;;;0.66;94.67;101258.34;5084833;28;20252;-78
2022/01/20 11:35:11;;;;;;;6.33;1.90;;;;;;;0.38;96.31;101200.03;5084746;28;20216;-80
2022/01/20 11:37:40;;;;;;;8.00;2.93;;;;;;;0.18;98.18;101143.72;5084584;28;20212;-77
2022/01/20 11:40:16;;;;;;;10.73;3.43;;;;;;;0.03;99.65;101099.53;5083385;28;20235;-78
2022/01/20 11:42:44;;;;;;;6.80;2.07;;;;;;;-0.07;100.00;101059.00;5084231;28;20216;-78
2022/01/20 11:45:25;;;;;;;6.77;2.50;;;;;;;-0.08;100.00;101022.22;5084912;28;20218;-79
2022/01/20 11:47:51;;;;;;;9.00;2.90;;;;;;;-0.13;100.00;100998.06;5084554;28;20200;-78
2022/01/20 11:50:20;;;;;;;20.13;2.90;;;;;;;-0.12;100.00;100976.75;5085222;28;20220;-79
2022/01/20 11:52:46;;;;;;;9.37;2.70;;;;;;;0.03;100.00;100967.78;5085971;28;20200;-79
2022/01/20 11:55:15;;;;;;;13.20;2.83;;;;;;;0.11;100.00;100964.63;5085882;28;20211;-79
2022/01/20 11:57:42;;;;;;;10.27;2.40;;;;;;;0.17;100.00;100969.09;5083753;28;20336;-79
2022/01/20 12:00:22;;;;;;;11.80;3.30;;;;;;;0.27;100.00;100957.44;5084012;28;20227;-77
2022/01/20 12:02:49;;;;;;;12.03;3.27;;;;;;;0.44;100.00;100950.22;5084776;28;20243;-78
2022/01/20 12:05:26;;;;;;;9.03;3.17;;;;;;;0.63;100.00;100964.50;5085513;28;20205;-78
2022/01/20 12:07:52;;;;;;;17.00;3.70;;;;;;;0.72;100.00;100963.09;5084359;28;20701;-78
2022/01/20 12:10:26;;;;;;;7.50;2.30;;;;;;;0.65;100.00;100958.59;5084412;28;20787;-79
2022/01/20 12:12:53;;;;;;;10.37;2.50;;;;;;;0.67;100.00;100963.78;5085493;28;20228;-78
2022/01/20 12:15:22;;;;;;;7.53;2.67;;;;;;;0.61;100.00;100974.72;5085323;28;20240;-78
2022/01/20 12:17:50;;;;;;;7.43;2.90;;;;;;;0.81;100.00;100997.59;5085505;28;20204;-77
2022/01/20 12:20:17;;;;;;;8.67;2.33;;;;;;;0.99;100.00;101014.44;5084559;28;21049;-79
2022/01/20 12:22:47;;;;;;;8.47;2.53;;;;;;;1.21;99.39;101027.00;5085257;28;20793;-78
2022/01/20 12:25:18;;;;;;;9.43;2.03;;;;;;;1.26;94.62;101116.34;5085524;28;20281;-78
2022/01/20 12:27:45;;;;;;;5.67;1.70;;;;;;;1.32;91.83;101229.66;5086656;28;20692;-79